createdAt,value
2018-12-09T00:00:20.606Z,8.40
2018-12-09T00:02:48.948Z,8.40
2018-12-09T00:05:17.782Z,8.40
2018-12-09T00:07:46.151Z,8.40
2018-12-09T00:10:14.533Z,8.40
2018-12-09T00:12:42.908Z,8.40
2018-12-09T00:15:11.260Z,8.40
2018-12-09T00:17:39.653Z,8.40
2018-12-09T00:20:08.886Z,8.40
2018-12-09T00:22:37.257Z,8.40
2018-12-09T00:25:06.014Z,8.40
2018-12-09T00:27:34.398Z,8.40
2018-12-09T00:30:02.764Z,8.40
2018-12-09T00:32:31.177Z,8.40
2018-12-09T00:34:59.756Z,8.40
2018-12-09T00:37:28.107Z,8.40
2018-12-09T00:39:56.481Z,8.30
2018-12-09T00:42:24.827Z,8.30
2018-12-09T00:44:53.183Z,8.40
2018-12-09T00:47:21.583Z,8.40
2018-12-09T00:49:49.940Z,8.50
2018-12-09T00:52:18.324Z,8.50
2018-12-09T00:54:46.676Z,8.50
2018-12-09T00:57:15.036Z,8.40
2018-12-09T00:59:43.414Z,8.40
2018-12-09T01:02:12.220Z,8.40
2018-12-09T01:04:40.575Z,8.40
2018-12-09T01:07:10.188Z,8.40
2018-12-09T01:09:38.571Z,8.40
2018-12-09T01:12:06.917Z,8.40
2018-12-09T01:14:35.280Z,8.40
2018-12-09T01:17:03.988Z,8.30
2018-12-09T01:19:32.352Z,8.30
2018-12-09T01:22:00.720Z,8.30
2018-12-09T01:24:29.087Z,8.30
2018-12-09T01:26:57.441Z,8.30
2018-12-09T01:29:25.859Z,8.40
2018-12-09T01:31:54.244Z,8.40
2018-12-09T01:34:22.612Z,8.30
2018-12-09T01:36:50.995Z,8.40
2018-12-09T01:39:19.364Z,8.30
2018-12-09T01:41:47.725Z,8.30
2018-12-09T01:44:16.678Z,8.20
2018-12-09T01:46:45.046Z,8.20
2018-12-09T01:49:13.396Z,8.20
2018-12-09T01:51:42.041Z,8.20
2018-12-09T01:54:12.805Z,8.20
2018-12-09T01:56:41.180Z,8.20
2018-12-09T01:59:09.983Z,8.20
2018-12-09T02:04:07.890Z,8.20
2018-12-09T02:09:08.761Z,8.20
2018-12-09T02:16:34.560Z,8.10
2018-12-09T02:19:14.370Z,8.20
2018-12-09T02:21:44.212Z,8.20
2018-12-09T02:24:13.722Z,8.10
2018-12-09T02:26:42.795Z,8.10
2018-12-09T02:29:11.165Z,8.10
2018-12-09T03:33:27.797Z,7.80
2018-12-09T03:35:56.237Z,7.80
2018-12-09T03:38:24.613Z,7.70
2018-12-09T03:40:53.425Z,7.70
2018-12-09T03:43:21.877Z,7.70
2018-12-09T03:45:50.518Z,7.70
2018-12-09T03:48:19.140Z,7.70
2018-12-09T03:50:47.497Z,7.70
2018-12-09T03:53:15.864Z,7.70
2018-12-09T03:55:44.214Z,7.70
2018-12-09T03:58:12.598Z,7.70
2018-12-09T04:00:41.676Z,7.70
2018-12-09T04:03:10.733Z,7.70
2018-12-09T04:05:39.084Z,7.70
2018-12-09T04:08:08.029Z,7.70
2018-12-09T04:10:36.640Z,7.70
2018-12-09T04:13:05.008Z,7.80
2018-12-09T04:15:37.571Z,7.70
2018-12-09T04:18:06.197Z,7.80
2018-12-09T04:20:34.805Z,7.70
2018-12-09T04:23:03.189Z,7.80
2018-12-09T04:25:31.808Z,7.80
2018-12-09T04:28:00.193Z,7.80
2018-12-09T04:30:29.031Z,7.90
2018-12-09T04:32:57.395Z,7.80
2018-12-09T04:35:25.754Z,7.80
2018-12-09T04:37:54.136Z,7.80
2018-12-09T04:40:22.570Z,7.80
2018-12-09T04:42:51.200Z,7.90
2018-12-09T04:45:19.588Z,7.90
2018-12-09T04:47:47.949Z,7.90
2018-12-09T04:50:16.610Z,7.90
2018-12-09T04:52:45.291Z,7.90
2018-12-09T04:55:14.151Z,7.90
2018-12-09T04:57:42.772Z,7.90
2018-12-09T05:00:22.192Z,8.00
2018-12-09T05:02:51.131Z,8.00
2018-12-09T05:05:19.485Z,8.00
2018-12-09T05:07:47.876Z,8.00
2018-12-09T05:10:16.253Z,8.00
2018-12-09T05:12:44.619Z,7.90
2018-12-09T05:15:13.889Z,7.90
2018-12-09T05:17:42.248Z,7.90
2018-12-09T05:20:10.851Z,7.80
2018-12-09T05:22:39.212Z,7.90
2018-12-09T05:25:10.240Z,7.80
2018-12-09T05:27:38.599Z,7.80
2018-12-09T05:30:08.119Z,7.80
2018-12-09T05:32:36.509Z,7.80
2018-12-09T05:35:05.221Z,7.80
2018-12-09T05:37:34.597Z,7.80
2018-12-09T05:40:03.399Z,7.80
2018-12-09T05:42:32.476Z,7.80
2018-12-09T05:45:00.839Z,7.80
2018-12-09T05:47:29.507Z,7.80
2018-12-09T05:52:26.410Z,7.90
2018-12-09T05:54:54.783Z,7.80
2018-12-09T05:57:23.136Z,7.80
2018-12-09T05:59:51.496Z,7.80
2018-12-09T06:02:31.220Z,7.80
2018-12-09T06:04:59.607Z,7.80
2018-12-09T06:07:28.304Z,7.80
2018-12-09T06:09:56.678Z,7.80
2018-12-09T06:12:25.058Z,7.80
2018-12-09T06:14:53.669Z,7.80
2018-12-09T06:17:22.023Z,7.80
2018-12-09T06:19:50.381Z,7.80
2018-12-09T06:22:19.000Z,7.80
2018-12-09T06:24:47.353Z,7.80
2018-12-09T06:27:15.722Z,7.80
2018-12-09T06:29:44.332Z,7.80
2018-12-09T06:32:12.696Z,7.80
2018-12-09T06:34:41.065Z,7.80
2018-12-09T06:37:09.428Z,7.70
2018-12-09T06:39:38.226Z,7.80
2018-12-09T06:42:06.624Z,7.80
2018-12-09T06:44:34.996Z,7.70
2018-12-09T06:47:04.009Z,7.80
2018-12-09T06:49:32.384Z,7.80
2018-12-09T06:52:00.756Z,7.80
2018-12-09T06:54:29.127Z,7.70
2018-12-09T06:56:57.748Z,7.80
2018-12-09T06:59:26.849Z,7.70
2018-12-09T07:01:55.840Z,7.70
2018-12-09T07:04:24.216Z,7.70
2018-12-09T07:06:52.584Z,7.70
2018-12-09T07:09:20.955Z,7.70
2018-12-09T07:11:49.982Z,7.80
2018-12-09T07:14:18.625Z,7.80
2018-12-09T07:16:46.996Z,7.80
2018-12-09T07:19:15.373Z,7.80
2018-12-09T07:21:43.976Z,7.80
2018-12-09T07:24:12.898Z,7.80
2018-12-09T07:26:41.270Z,7.80
2018-12-09T07:29:09.641Z,7.80
2018-12-09T07:31:38.036Z,7.80
2018-12-09T07:34:06.392Z,7.80
2018-12-09T07:36:35.281Z,7.80
2018-12-09T07:39:05.905Z,7.80
2018-12-09T07:41:34.548Z,7.80
2018-12-09T07:44:02.952Z,7.80
2018-12-09T07:46:31.345Z,7.70
2018-12-09T07:48:59.765Z,7.70
2018-12-09T07:51:28.120Z,7.70
2018-12-09T07:53:56.496Z,7.60
2018-12-09T07:56:24.861Z,7.60
2018-12-09T07:58:53.276Z,7.70
2018-12-09T08:01:21.685Z,7.70
2018-12-09T08:03:50.090Z,7.70
2018-12-09T08:06:18.467Z,7.70
2018-12-09T08:08:46.859Z,7.70
2018-12-09T08:11:15.230Z,7.70
2018-12-09T08:13:43.608Z,7.80
2018-12-09T08:16:11.981Z,7.80
2018-12-09T08:18:40.328Z,7.70
2018-12-09T08:21:09.225Z,7.70
2018-12-09T08:23:37.922Z,7.70
2018-12-09T08:26:06.293Z,7.80
2018-12-09T08:28:34.653Z,7.70
2018-12-09T08:31:03.053Z,7.60
2018-12-09T08:33:31.654Z,7.60
2018-12-09T08:36:00.021Z,7.60
2018-12-09T08:38:28.392Z,7.60
2018-12-09T08:40:56.752Z,7.50
2018-12-09T08:43:25.111Z,7.40
2018-12-09T08:45:53.939Z,7.40
2018-12-09T08:48:22.319Z,7.40
2018-12-09T08:50:50.724Z,7.30
2018-12-09T08:53:19.558Z,7.20
2018-12-09T08:55:48.361Z,7.10
2018-12-09T08:58:16.724Z,7.00
2018-12-09T09:00:45.101Z,7.00
2018-12-09T09:03:13.459Z,7.10
2018-12-09T09:05:41.858Z,7.10
2018-12-09T09:08:11.751Z,7.20
2018-12-09T09:10:40.807Z,7.20
2018-12-09T09:13:09.248Z,7.10
2018-12-09T09:15:37.704Z,7.10
2018-12-09T09:18:06.596Z,7.10
2018-12-09T09:20:35.008Z,7.20
2018-12-09T09:23:03.836Z,7.20
2018-12-09T09:25:32.211Z,7.10
2018-12-09T09:28:00.602Z,7.20
2018-12-09T09:30:28.980Z,7.20
2018-12-09T09:32:57.362Z,7.20
2018-12-09T09:35:25.733Z,7.30
2018-12-09T09:37:54.110Z,7.30
2018-12-09T09:40:23.320Z,7.40
2018-12-09T09:42:52.524Z,7.30
2018-12-09T09:45:21.764Z,7.20
2018-12-09T09:47:51.214Z,7.20
2018-12-09T09:50:20.271Z,7.10
2018-12-09T09:52:49.202Z,7.10
2018-12-09T09:55:18.202Z,7.10
2018-12-09T09:57:47.182Z,6.90
2018-12-09T10:00:16.363Z,7.00
2018-12-09T10:02:44.823Z,6.90
2018-12-09T10:05:13.653Z,6.90
2018-12-09T10:07:42.023Z,6.90
2018-12-09T10:10:10.419Z,7.00
2018-12-09T10:12:38.792Z,7.10
2018-12-09T10:15:07.620Z,7.20
2018-12-09T10:17:35.989Z,7.30
2018-12-09T10:20:05.218Z,7.30
2018-12-09T10:22:33.832Z,7.50
2018-12-09T10:25:02.189Z,7.50
2018-12-09T10:27:30.597Z,7.60
2018-12-09T10:29:59.842Z,7.60
2018-12-09T10:32:28.443Z,7.60
2018-12-09T10:34:57.083Z,7.60
2018-12-09T10:37:25.447Z,7.40
2018-12-09T10:39:53.804Z,6.40
2018-12-09T10:42:22.424Z,5.20
2018-12-09T10:44:51.024Z,4.40
2018-12-09T10:47:19.879Z,4.00
2018-12-09T10:49:48.252Z,3.70
2018-12-09T10:52:16.608Z,3.90
2018-12-09T10:54:44.983Z,3.90
2018-12-09T10:57:13.367Z,3.90
2018-12-09T10:59:41.733Z,4.00
2018-12-09T11:02:15.465Z,4.10
2018-12-09T11:04:43.810Z,4.10
2018-12-09T11:07:12.207Z,4.20
2018-12-09T11:09:40.567Z,4.40
2018-12-09T11:12:08.991Z,4.50
2018-12-09T11:14:37.363Z,4.50
2018-12-09T11:17:05.744Z,4.50
2018-12-09T11:19:34.111Z,4.50
2018-12-09T11:22:02.481Z,4.50
2018-12-09T11:24:30.856Z,4.60
2018-12-09T11:26:59.689Z,4.60
2018-12-09T11:29:28.173Z,4.70
2018-12-09T11:31:56.980Z,4.80
2018-12-09T11:34:25.351Z,5.00
2018-12-09T11:36:53.723Z,5.00
2018-12-09T11:39:22.397Z,5.10
2018-12-09T11:41:50.756Z,5.20
2018-12-09T11:44:19.132Z,5.30
2018-12-09T11:46:47.482Z,5.30
2018-12-09T11:49:15.870Z,5.40
2018-12-09T11:51:44.232Z,5.40
2018-12-09T11:54:12.603Z,5.50
2018-12-09T11:56:41.000Z,5.60
2018-12-09T11:59:09.364Z,5.70
2018-12-09T12:01:37.737Z,5.70
2018-12-09T12:04:06.118Z,5.70
2018-12-09T12:06:34.506Z,5.80
2018-12-09T12:09:02.919Z,5.80
2018-12-09T12:11:31.340Z,5.90
2018-12-09T12:13:59.676Z,6.00
2018-12-09T12:16:28.050Z,6.10
2018-12-09T12:18:56.773Z,6.10
2018-12-09T12:21:25.229Z,6.20
2018-12-09T12:23:53.576Z,6.50
2018-12-09T12:26:22.840Z,6.40
2018-12-09T12:28:51.600Z,6.40
2018-12-09T12:31:19.973Z,6.40
2018-12-09T12:33:48.327Z,6.40
2018-12-09T12:36:17.021Z,6.40
2018-12-09T12:38:45.481Z,6.40
2018-12-09T12:41:14.288Z,6.40
2018-12-09T12:43:43.615Z,6.40
2018-12-09T12:46:12.505Z,6.40
2018-12-09T12:48:40.895Z,6.50
2018-12-09T12:51:09.274Z,6.60
2018-12-09T12:53:38.617Z,6.60
2018-12-09T12:56:07.001Z,6.70
2018-12-09T12:58:35.409Z,6.70
2018-12-09T13:01:04.204Z,6.80
2018-12-09T13:03:32.579Z,6.90
2018-12-09T13:06:01.300Z,7.00
2018-12-09T13:08:30.012Z,7.00
2018-12-09T13:10:58.369Z,7.00
2018-12-09T13:13:26.757Z,6.90
2018-12-09T13:15:55.111Z,6.90
2018-12-09T13:18:23.824Z,6.80
2018-12-09T13:20:52.619Z,6.80
2018-12-09T13:23:21.206Z,6.80
2018-12-09T13:25:49.928Z,6.70
2018-12-09T13:28:18.651Z,6.70
2018-12-09T13:30:47.007Z,6.70
2018-12-09T13:33:15.379Z,6.70
2018-12-09T13:35:43.724Z,6.70
2018-12-09T13:38:12.564Z,6.70
2018-12-09T13:40:40.925Z,6.70
2018-12-09T13:43:09.525Z,6.80
2018-12-09T13:45:38.165Z,6.90
2018-12-09T13:48:07.014Z,6.90
2018-12-09T13:50:35.750Z,6.90
2018-12-09T13:53:04.554Z,6.90
2018-12-09T13:55:32.919Z,6.90
2018-12-09T13:58:01.268Z,6.90
2018-12-09T14:00:29.669Z,6.90
2018-12-09T14:02:58.048Z,6.90
2018-12-09T14:05:28.688Z,6.90
2018-12-09T14:07:57.141Z,6.90
2018-12-09T14:10:25.520Z,6.90
2018-12-09T14:12:54.008Z,6.90
2018-12-09T14:15:22.417Z,6.90
2018-12-09T14:17:50.772Z,6.90
2018-12-09T14:20:19.600Z,6.90
2018-12-09T14:22:48.096Z,6.90
2018-12-09T14:25:16.461Z,6.80
2018-12-09T14:27:44.813Z,6.80
2018-12-09T14:30:13.459Z,6.80
2018-12-09T14:32:41.814Z,6.80
2018-12-09T14:35:10.332Z,6.80
2018-12-09T14:37:38.737Z,6.80
2018-12-09T14:40:09.668Z,6.80
2018-12-09T14:42:38.045Z,6.80
2018-12-09T14:45:08.520Z,6.90
2018-12-09T14:47:36.904Z,6.80
2018-12-09T14:50:08.524Z,6.90
2018-12-09T14:52:37.274Z,6.80
2018-12-09T14:55:06.271Z,6.80
2018-12-09T14:57:34.727Z,6.80
2018-12-09T15:00:03.539Z,6.80
2018-12-09T15:02:31.904Z,6.80
2018-12-09T15:05:00.626Z,6.80
2018-12-09T15:07:28.980Z,6.70
2018-12-09T15:09:58.332Z,6.70
2018-12-09T15:12:28.383Z,6.70
2018-12-09T15:14:56.759Z,6.70
2018-12-09T15:17:25.160Z,6.60
2018-12-09T15:19:53.532Z,6.60
2018-12-09T15:22:21.896Z,6.60
2018-12-09T15:24:50.354Z,6.60
2018-12-09T15:27:18.699Z,6.50
2018-12-09T15:29:47.176Z,6.50
2018-12-09T15:32:15.550Z,6.50
2018-12-09T15:34:43.905Z,6.50
2018-12-09T15:37:12.270Z,6.50
2018-12-09T15:39:40.639Z,6.40
2018-12-09T15:42:09.020Z,6.40
2018-12-09T15:44:37.410Z,6.40
2018-12-09T15:47:05.789Z,6.50
2018-12-09T15:49:34.153Z,6.40
2018-12-09T15:52:02.871Z,6.40
2018-12-09T15:54:31.911Z,6.40
2018-12-09T15:57:00.360Z,6.40
2018-12-09T15:59:32.245Z,6.40
2018-12-09T16:01:59.105Z,6.40
2018-12-09T16:04:27.564Z,6.40
2018-12-09T16:06:55.953Z,6.40
2018-12-09T16:09:24.337Z,6.40
2018-12-09T16:11:52.696Z,6.50
2018-12-09T16:14:21.073Z,6.50
2018-12-09T16:16:49.480Z,6.50
2018-12-09T16:19:17.837Z,6.50
2018-12-09T16:21:46.669Z,6.40
2018-12-09T16:24:15.034Z,6.40
2018-12-09T16:26:43.432Z,6.50
2018-12-09T16:29:11.815Z,6.50
2018-12-09T16:31:40.183Z,6.50
2018-12-09T16:34:08.636Z,6.50
2018-12-09T16:36:37.063Z,6.50
2018-12-09T16:39:07.181Z,6.50
2018-12-09T16:41:35.556Z,6.50
2018-12-09T16:44:04.922Z,6.50
2018-12-09T16:46:33.367Z,6.50
2018-12-09T16:49:01.732Z,6.40
2018-12-09T16:51:30.152Z,6.20
2018-12-09T16:53:58.528Z,6.10
2018-12-09T16:56:26.900Z,6.00
2018-12-09T16:58:55.267Z,5.90
2018-12-09T17:01:23.635Z,5.70
2018-12-09T17:03:52.008Z,5.70
2018-12-09T17:06:20.391Z,5.60
2018-12-09T17:08:48.764Z,5.60
2018-12-09T17:11:17.597Z,5.60
2018-12-09T17:13:45.974Z,5.70
2018-12-09T17:16:14.384Z,5.60
2018-12-09T17:18:42.801Z,5.60
2018-12-09T17:21:11.187Z,5.60
2018-12-09T17:23:39.561Z,5.50
2018-12-09T17:26:07.923Z,5.50
2018-12-09T17:28:36.299Z,5.50
2018-12-09T17:31:04.704Z,5.50
2018-12-09T17:33:33.063Z,5.50
2018-12-09T17:36:01.438Z,5.50
2018-12-09T17:38:29.819Z,5.50
2018-12-09T17:40:58.641Z,5.60
2018-12-09T17:43:26.989Z,5.70
2018-12-09T17:45:55.361Z,5.80
2018-12-09T17:48:23.750Z,5.90
2018-12-09T17:50:52.123Z,5.90
2018-12-09T17:53:20.503Z,5.90
2018-12-09T17:55:48.884Z,6.00
2018-12-09T17:58:17.317Z,5.90
2018-12-09T18:00:46.179Z,5.90
2018-12-09T18:03:14.532Z,5.90
2018-12-09T18:05:42.907Z,5.90
2018-12-09T18:08:11.286Z,5.90
2018-12-09T18:10:39.666Z,5.90
2018-12-09T18:13:08.013Z,5.90
2018-12-09T18:15:36.429Z,5.90
2018-12-09T18:18:05.016Z,5.90
2018-12-09T18:20:33.394Z,5.90
2018-12-09T18:23:01.750Z,5.90
2018-12-09T18:25:30.139Z,5.90
2018-12-09T18:27:58.487Z,5.90
2018-12-09T18:30:27.931Z,5.90
2018-12-09T18:32:56.570Z,5.90
2018-12-09T18:35:24.930Z,5.90
2018-12-09T18:37:54.158Z,6.00
2018-12-09T18:40:22.560Z,5.90
2018-12-09T18:42:50.922Z,5.90
2018-12-09T18:45:19.768Z,5.90
2018-12-09T18:47:48.216Z,5.90
2018-12-09T18:50:16.797Z,5.90
2018-12-09T18:52:45.227Z,5.90
2018-12-09T18:55:13.597Z,5.90
2018-12-09T18:57:41.976Z,5.90
2018-12-09T19:00:11.208Z,5.90
2018-12-09T19:02:39.620Z,5.90
2018-12-09T19:05:08.505Z,5.90
2018-12-09T19:07:37.211Z,5.90
2018-12-09T19:10:06.692Z,5.90
2018-12-09T19:12:35.056Z,5.90
2018-12-09T19:15:03.869Z,5.90
2018-12-09T19:17:32.248Z,5.90
2018-12-09T19:20:00.649Z,5.80
2018-12-09T19:22:29.004Z,5.80
2018-12-09T19:24:57.379Z,5.80
2018-12-09T19:27:25.744Z,5.80
2018-12-09T19:29:54.137Z,5.70
2018-12-09T19:32:22.880Z,5.70
2018-12-09T19:34:51.280Z,5.80
2018-12-09T19:37:19.655Z,5.70
2018-12-09T19:39:48.116Z,5.70
2018-12-09T19:42:16.491Z,5.70
2018-12-09T19:44:44.876Z,5.70
2018-12-09T19:47:13.684Z,5.70
2018-12-09T19:49:42.123Z,5.70
2018-12-09T19:52:10.493Z,5.70
2018-12-09T19:54:38.855Z,5.60
2018-12-09T19:57:07.214Z,5.50
2018-12-09T19:59:35.607Z,5.50
2018-12-09T20:02:03.961Z,5.50
2018-12-09T20:04:32.335Z,5.40
2018-12-09T20:07:00.709Z,5.40
2018-12-09T20:09:29.063Z,5.40
2018-12-09T20:11:57.887Z,5.40
2018-12-09T20:14:26.280Z,5.40
2018-12-09T20:16:54.664Z,5.40
2018-12-09T20:19:23.057Z,5.40
2018-12-09T20:21:51.416Z,5.50
2018-12-09T20:24:19.808Z,5.50
2018-12-09T20:26:48.187Z,5.50
2018-12-09T20:29:16.582Z,5.50
2018-12-09T20:31:44.951Z,5.50
2018-12-09T20:34:13.316Z,5.50
2018-12-09T20:36:41.696Z,5.50
2018-12-09T20:39:10.103Z,5.40
2018-12-09T20:41:38.504Z,5.40
2018-12-09T20:44:06.872Z,5.40
2018-12-09T20:46:35.273Z,5.40
2018-12-09T20:49:03.660Z,5.40
2018-12-09T20:51:32.041Z,5.40
2018-12-09T20:54:00.421Z,5.40
2018-12-09T20:56:28.813Z,5.30
2018-12-09T20:58:57.193Z,5.30
2018-12-09T21:01:25.596Z,5.20
2018-12-09T21:03:53.976Z,5.20
2018-12-09T21:06:22.491Z,5.20
2018-12-09T21:08:50.888Z,5.20
2018-12-09T21:11:19.300Z,5.20
2018-12-09T21:13:47.689Z,5.20
2018-12-09T21:16:16.060Z,5.20
2018-12-09T21:18:44.451Z,5.20
2018-12-09T21:21:12.826Z,5.20
2018-12-09T21:23:41.218Z,5.20
2018-12-09T21:26:09.596Z,5.30
2018-12-09T21:28:37.946Z,5.30
2018-12-09T21:31:06.775Z,5.30
2018-12-09T21:33:36.513Z,5.30
2018-12-09T21:36:05.296Z,5.30
2018-12-09T21:38:33.680Z,5.30
2018-12-09T21:41:02.086Z,5.40
2018-12-09T21:43:30.448Z,5.40
2018-12-09T21:45:58.838Z,5.40
2018-12-09T21:48:27.227Z,5.40
2018-12-09T21:50:55.697Z,5.30
2018-12-09T21:53:24.340Z,5.30
2018-12-09T21:55:52.745Z,5.30
2018-12-09T21:58:21.116Z,5.30
2018-12-09T22:00:49.643Z,5.40
2018-12-09T22:03:18.039Z,5.30
2018-12-09T22:05:46.436Z,5.30
2018-12-09T22:08:14.828Z,5.30
2018-12-09T22:10:43.225Z,5.30
2018-12-09T22:13:12.087Z,5.30
2018-12-09T22:15:40.500Z,5.30
2018-12-09T22:18:08.881Z,5.20
2018-12-09T22:20:37.300Z,5.20
2018-12-09T22:23:05.708Z,5.20
2018-12-09T22:25:34.076Z,5.20
2018-12-09T22:28:02.483Z,5.20
2018-12-09T22:30:30.860Z,5.20
2018-12-09T22:32:59.244Z,5.20
2018-12-09T22:35:27.629Z,5.20
2018-12-09T22:37:56.001Z,5.20
2018-12-09T22:40:24.815Z,5.20
2018-12-09T22:42:53.229Z,5.20
2018-12-09T22:45:21.623Z,5.20
2018-12-09T22:47:50.013Z,5.20
2018-12-09T22:50:18.408Z,5.20
2018-12-09T22:52:46.792Z,5.30
2018-12-09T22:55:15.165Z,5.30
2018-12-09T22:57:43.556Z,5.20
2018-12-09T23:00:27.107Z,5.20
2018-12-09T23:03:04.046Z,5.20
2018-12-09T23:05:32.901Z,5.10
2018-12-09T23:08:01.312Z,5.10
2018-12-09T23:10:29.685Z,5.00
2018-12-09T23:12:58.043Z,5.00
2018-12-09T23:15:26.406Z,4.90
2018-12-09T23:17:54.770Z,4.90
2018-12-09T23:20:23.168Z,4.90
2018-12-09T23:22:51.526Z,4.90
2018-12-09T23:25:19.928Z,4.90
2018-12-09T23:27:48.324Z,4.90
2018-12-09T23:30:16.715Z,4.90
2018-12-09T23:32:45.507Z,4.80
2018-12-09T23:35:13.912Z,4.80
2018-12-09T23:37:42.280Z,4.80
2018-12-09T23:40:10.661Z,4.80
2018-12-09T23:42:39.368Z,4.80
2018-12-09T23:45:08.196Z,4.70
2018-12-09T23:47:36.580Z,4.70
2018-12-09T23:50:05.675Z,4.70
2018-12-09T23:52:34.124Z,4.70
2018-12-09T23:55:02.487Z,4.70
2018-12-09T23:57:30.898Z,4.70
2018-12-09T23:59:59.353Z,4.70
